createdAt,value
2023-03-11T00:00:37.087Z,99366.03
2023-03-11T00:03:06.005Z,99368.63
2023-03-11T00:05:36.821Z,99330.81
2023-03-11T00:08:28.010Z,99373.69
2023-03-11T00:11:08.663Z,99306.16
2023-03-11T00:13:37.008Z,99364.84
2023-03-11T00:16:04.465Z,99322.06
2023-03-11T00:18:31.860Z,99342.13
2023-03-11T00:21:00.191Z,99267.84
2023-03-11T00:23:27.777Z,99280.00
2023-03-11T00:25:55.164Z,99333.44
2023-03-11T00:28:42.029Z,99301.78
2023-03-11T00:31:36.093Z,99349.09
2023-03-11T00:34:24.904Z,99371.03
2023-03-11T00:36:51.805Z,99294.69
2023-03-11T00:39:18.735Z,99279.91
2023-03-11T00:42:06.055Z,99349.06
2023-03-11T00:44:46.657Z,99360.50
2023-03-11T00:47:14.102Z,99357.94
2023-03-11T00:49:41.193Z,99327.28
2023-03-11T00:52:08.229Z,99327.44
2023-03-11T00:54:55.044Z,99323.94
2023-03-11T00:57:56.025Z,99343.31
2023-03-11T01:00:57.037Z,99324.81
2023-03-11T01:03:38.633Z,99337.91
2023-03-11T01:06:06.240Z,99327.28
2023-03-11T01:08:33.459Z,99337.91
2023-03-11T01:11:01.044Z,99266.19
2023-03-11T01:13:29.465Z,99306.47
2023-03-11T01:15:57.068Z,99229.34
2023-03-11T01:18:24.757Z,99271.41
2023-03-11T01:20:52.218Z,99310.88
2023-03-11T01:23:20.300Z,99289.09
2023-03-11T01:25:48.101Z,99281.28
2023-03-11T01:28:15.040Z,99270.75
2023-03-11T01:30:43.144Z,99272.47
2023-03-11T01:33:17.038Z,99276.06
2023-03-11T01:35:44.691Z,99282.13
2023-03-11T01:38:12.280Z,99198.84
2023-03-11T01:40:45.460Z,99297.84
2023-03-11T01:43:53.057Z,99275.13
2023-03-11T01:47:00.067Z,99277.72
2023-03-11T01:49:31.600Z,99247.91
2023-03-11T01:52:07.782Z,99271.50
2023-03-11T01:55:00.071Z,99259.28
2023-03-11T01:58:02.039Z,99220.56
2023-03-11T02:01:04.041Z,99217.97
2023-03-11T02:03:54.501Z,99211.81
2023-03-11T02:06:23.375Z,99242.50
2023-03-11T02:09:11.045Z,99205.69
2023-03-11T02:12:08.764Z,99226.66
2023-03-11T02:14:40.048Z,99204.84
2023-03-11T02:17:07.147Z,99168.91
2023-03-11T02:20:02.321Z,99243.34
2023-03-11T02:22:37.624Z,99169.72
2023-03-11T02:25:27.784Z,99126.72
2023-03-11T02:27:57.156Z,99238.81
2023-03-11T02:30:27.739Z,99109.09
2023-03-11T02:32:56.344Z,99175.75
2023-03-11T02:35:24.200Z,99145.81
2023-03-11T02:37:54.657Z,99216.88
2023-03-11T02:40:22.788Z,99209.94
2023-03-11T02:43:17.070Z,99146.66
2023-03-11T02:45:57.842Z,99153.66
2023-03-11T02:48:26.118Z,99176.41
2023-03-11T02:50:53.825Z,99166.00
2023-03-11T02:53:44.059Z,99177.44
2023-03-11T02:56:24.618Z,99200.03
2023-03-11T02:59:11.630Z,99133.53
2023-03-11T03:01:52.289Z,99215.97
2023-03-11T03:04:19.720Z,99180.81
2023-03-11T03:06:47.259Z,99204.50
2023-03-11T03:09:16.967Z,99214.16
2023-03-11T03:11:44.735Z,99082.94
2023-03-11T03:14:12.160Z,99105.72
2023-03-11T03:16:39.408Z,99153.16
2023-03-11T03:19:06.724Z,99134.84
2023-03-11T03:21:33.790Z,99181.25
2023-03-11T03:24:01.433Z,99133.97
2023-03-11T03:26:28.402Z,99071.84
2023-03-11T03:28:55.524Z,99085.78
2023-03-11T03:31:22.831Z,99067.25
2023-03-11T03:34:10.686Z,99082.16
2023-03-11T03:37:12.026Z,99190.72
2023-03-11T03:40:09.061Z,99114.50
2023-03-11T03:42:56.662Z,99077.66
2023-03-11T03:45:38.507Z,99122.28
2023-03-11T03:48:06.235Z,99065.34
2023-03-11T03:50:58.082Z,99040.94
2023-03-11T03:53:59.670Z,99174.84
2023-03-11T03:57:00.684Z,99216.84
2023-03-11T04:00:14.624Z,99174.84
2023-03-11T04:02:41.877Z,99187.13
2023-03-11T04:05:17.401Z,99142.56
2023-03-11T04:07:45.251Z,99139.09
2023-03-11T04:10:14.366Z,99184.59
2023-03-11T04:12:42.115Z,99139.84
2023-03-11T04:15:09.953Z,99166.94
2023-03-11T04:17:38.390Z,99163.34
2023-03-11T04:20:10.435Z,99171.84
2023-03-11T04:22:37.699Z,99222.63
2023-03-11T04:25:05.874Z,99251.53
2023-03-11T04:27:33.396Z,99212.13
2023-03-11T04:30:02.737Z,99222.53
2023-03-11T04:32:31.440Z,99228.69
2023-03-11T04:34:58.938Z,99229.63
2023-03-11T04:37:29.952Z,99234.78
2023-03-11T04:39:57.611Z,99154.13
2023-03-11T04:42:45.675Z,99177.09
2023-03-11T04:45:40.178Z,99184.84
2023-03-11T04:48:20.329Z,99168.09
2023-03-11T04:50:48.304Z,99161.28
2023-03-11T04:53:35.673Z,99169.88
2023-03-11T04:56:17.304Z,99084.06
2023-03-11T04:58:44.562Z,99161.06
2023-03-11T05:01:31.751Z,99192.47
2023-03-11T05:04:14.452Z,99124.16
2023-03-11T05:06:42.965Z,99191.69
2023-03-11T05:09:11.531Z,99080.59
2023-03-11T05:11:40.356Z,99097.38
2023-03-11T05:14:07.490Z,99093.16
2023-03-11T05:16:34.685Z,99105.28
2023-03-11T05:19:24.013Z,99081.66
2023-03-11T05:21:51.238Z,99034.28
2023-03-11T05:24:18.461Z,99126.06
2023-03-11T05:26:48.180Z,99172.25
2023-03-11T05:29:15.739Z,99160.06
2023-03-11T05:31:42.781Z,99195.94
2023-03-11T05:34:10.076Z,99224.59
2023-03-11T05:36:37.154Z,99286.69
2023-03-11T05:39:04.890Z,99211.34
2023-03-11T05:41:53.713Z,99247.31
2023-03-11T05:44:39.897Z,99281.59
2023-03-11T05:47:07.123Z,99213.31
2023-03-11T05:49:35.657Z,99249.31
2023-03-11T05:52:02.965Z,99161.94
2023-03-11T05:54:51.763Z,99212.06
2023-03-11T05:57:54.829Z,99144.13
2023-03-11T06:00:55.801Z,99122.41
2023-03-11T06:03:55.957Z,99109.25
2023-03-11T06:06:23.969Z,99117.97
2023-03-11T06:08:50.990Z,99165.91
2023-03-11T06:11:20.131Z,99190.94
2023-03-11T06:13:47.704Z,99213.72
2023-03-11T06:16:15.038Z,99151.69
2023-03-11T06:18:42.249Z,99218.34
2023-03-11T06:21:16.076Z,99180.72
2023-03-11T06:23:43.196Z,99257.78
2023-03-11T06:26:13.321Z,99208.78
2023-03-11T06:28:43.918Z,99223.97
2023-03-11T06:31:15.890Z,99212.03
2023-03-11T06:33:43.754Z,99178.38
2023-03-11T06:36:13.055Z,99209.22
2023-03-11T06:38:40.187Z,99162.03
2023-03-11T06:41:07.619Z,99210.09
2023-03-11T06:43:55.758Z,99158.50
2023-03-11T06:46:36.976Z,99181.19
2023-03-11T06:49:05.161Z,99131.38
2023-03-11T06:51:33.264Z,99178.53
2023-03-11T06:54:20.769Z,99175.88
2023-03-11T06:57:22.763Z,99143.53
2023-03-11T07:00:25.761Z,99195.66
2023-03-11T07:03:27.781Z,99142.19
2023-03-11T07:06:31.803Z,99207.09
2023-03-11T07:09:16.347Z,99217.56
2023-03-11T07:11:45.214Z,99185.47
2023-03-11T07:14:16.619Z,99189.66
2023-03-11T07:16:47.917Z,99187.47
2023-03-11T07:19:27.571Z,99173.34
2023-03-11T07:21:54.551Z,99171.84
2023-03-11T07:24:21.937Z,99226.06
2023-03-11T07:26:48.997Z,99213.34
2023-03-11T07:29:15.997Z,99231.78
2023-03-11T07:31:42.966Z,99230.28
2023-03-11T07:34:12.748Z,99221.25
2023-03-11T07:36:41.959Z,99235.41
2023-03-11T07:39:14.007Z,99228.28
2023-03-11T07:42:00.796Z,99203.69
2023-03-11T07:44:42.516Z,99245.84
2023-03-11T07:47:09.725Z,99249.13
2023-03-11T07:49:38.516Z,99240.31
2023-03-11T07:52:06.005Z,99240.88
2023-03-11T07:54:53.781Z,99189.59
2023-03-11T07:57:34.401Z,99255.72
2023-03-11T08:00:22.794Z,99242.50
2023-03-11T08:03:23.882Z,99180.56
2023-03-11T08:06:33.780Z,99210.88
2023-03-11T08:09:27.793Z,99268.16
2023-03-11T08:12:09.052Z,99178.16
2023-03-11T08:14:35.981Z,99261.34
2023-03-11T08:17:04.093Z,99233.91
2023-03-11T08:19:31.060Z,99211.06
2023-03-11T08:21:57.993Z,99229.69
2023-03-11T08:24:24.940Z,99197.03
2023-03-11T08:27:11.806Z,99246.41
2023-03-11T08:29:59.842Z,99252.81
2023-03-11T08:32:26.904Z,99194.13
2023-03-11T08:34:53.904Z,99268.34
2023-03-11T08:37:23.338Z,99242.84
2023-03-11T08:39:51.428Z,99164.25
2023-03-11T08:42:38.853Z,99251.25
2023-03-11T08:45:19.901Z,99293.09
2023-03-11T08:47:46.980Z,99155.16
2023-03-11T08:50:18.702Z,99227.50
2023-03-11T08:53:06.902Z,99192.63
2023-03-11T08:56:07.830Z,99221.19
2023-03-11T08:59:08.866Z,99237.34
2023-03-11T09:02:09.844Z,99201.59
2023-03-11T09:05:10.820Z,99199.19
2023-03-11T09:08:11.849Z,99205.28
2023-03-11T09:10:52.422Z,99188.22
2023-03-11T09:13:19.838Z,99166.41
2023-03-11T09:15:49.043Z,99243.28
2023-03-11T09:18:16.489Z,99214.13
2023-03-11T09:20:44.803Z,99246.19
2023-03-11T09:23:13.916Z,99237.59
2023-03-11T09:25:40.911Z,99242.88
2023-03-11T09:28:08.020Z,99229.50
2023-03-11T09:30:35.902Z,99253.22
2023-03-11T09:33:02.976Z,99160.25
2023-03-11T09:35:30.302Z,99231.66
2023-03-11T09:37:57.568Z,99227.41
2023-03-11T09:40:26.797Z,99228.63
2023-03-11T09:43:32.919Z,99240.75
2023-03-11T09:46:19.634Z,99254.63
2023-03-11T09:49:10.336Z,99234.44
2023-03-11T09:51:46.903Z,99292.00
2023-03-11T09:54:35.878Z,99288.78
2023-03-11T09:57:27.020Z,99311.50
2023-03-11T10:00:15.989Z,99309.66
2023-03-11T10:02:56.825Z,99312.00
2023-03-11T10:05:43.906Z,99238.16
2023-03-11T10:08:44.590Z,99281.06
2023-03-11T10:11:30.184Z,99293.28
2023-03-11T10:14:03.741Z,99298.19
2023-03-11T10:17:04.370Z,99220.53
2023-03-11T10:19:50.156Z,99272.13
2023-03-11T10:22:17.223Z,99247.75
2023-03-11T10:25:17.328Z,99312.13
2023-03-11T10:28:17.971Z,99327.28
2023-03-11T10:31:32.996Z,99287.97
2023-03-11T10:34:41.912Z,99268.16
2023-03-11T10:38:26.800Z,99321.16
2023-03-11T11:16:45.198Z,99045.41
2023-03-11T11:20:16.363Z,99298.03
2023-03-11T11:23:34.238Z,99227.94
2023-03-11T11:26:33.594Z,99153.47
2023-03-11T11:29:10.657Z,99295.91
2023-03-11T11:31:46.353Z,99175.16
2023-03-11T11:34:39.523Z,99234.41
2023-03-11T11:37:41.261Z,99164.28
2023-03-11T11:40:42.205Z,99140.75
2023-03-11T11:44:25.210Z,99287.06
2023-03-11T11:51:56.747Z,98998.69
2023-03-11T11:56:13.478Z,99290.28
2023-03-11T12:04:40.866Z,99223.78
2023-03-11T12:07:45.650Z,99261.56
2023-03-11T12:10:36.712Z,99252.34
2023-03-11T12:13:53.173Z,99200.34
2023-03-11T12:16:57.182Z,99133.75
2023-03-11T12:19:42.846Z,99259.16
2023-03-11T12:26:23.915Z,99030.38
2023-03-11T12:29:23.409Z,99175.41
2023-03-11T12:31:52.902Z,98977.69
2023-03-11T12:34:40.351Z,98989.66
2023-03-11T12:37:44.153Z,99257.06
2023-03-11T12:41:14.393Z,99273.38
2023-03-11T12:48:11.003Z,99254.66
2023-03-11T12:51:46.102Z,99234.06
2023-03-11T12:54:40.633Z,99208.69
2023-03-11T12:57:30.979Z,99229.38
2023-03-11T13:00:53.002Z,99239.81
2023-03-11T13:03:55.780Z,99097.47
2023-03-11T13:07:01.564Z,99212.97
2023-03-11T13:09:31.492Z,99147.13
2023-03-11T13:12:48.076Z,99176.00
2023-03-11T13:14:49.376Z,98980.59
2023-03-11T13:17:39.227Z,99079.53
2023-03-11T13:21:03.202Z,99233.94
2023-03-11T13:24:35.256Z,99234.31
2023-03-11T13:27:41.468Z,99125.78
2023-03-11T13:33:37.730Z,99243.28
2023-03-11T13:37:00.182Z,98944.63
2023-03-11T13:40:36.979Z,99021.94
2023-03-11T13:43:28.875Z,99223.56
2023-03-11T13:46:31.860Z,99228.41
2023-03-11T13:49:21.452Z,99229.09
2023-03-11T13:52:16.842Z,98960.28
2023-03-11T13:58:39.818Z,99231.72
2023-03-11T14:01:18.454Z,98969.50
2023-03-11T14:03:50.005Z,99067.22
2023-03-11T14:06:29.914Z,99052.03
2023-03-11T14:09:09.128Z,99086.53
2023-03-11T14:11:36.999Z,98945.38
2023-03-11T14:18:46.027Z,99226.88
2023-03-11T14:21:47.024Z,99197.31
2023-03-11T14:24:30.120Z,99240.09
2023-03-11T14:27:00.770Z,99241.91
2023-03-11T14:29:39.834Z,99224.63
2023-03-11T14:32:25.086Z,99246.50
2023-03-11T14:34:52.202Z,99216.75
2023-03-11T14:37:48.036Z,99205.34
2023-03-11T14:40:37.782Z,99247.50
2023-03-11T14:43:25.032Z,99261.53
2023-03-11T14:46:43.363Z,99235.78
2023-03-11T14:49:46.038Z,99252.25
2023-03-11T14:52:52.064Z,99233.22
2023-03-11T14:55:40.374Z,99254.22
2023-03-11T14:58:15.057Z,99251.38
2023-03-11T15:00:59.132Z,99211.69
2023-03-11T15:03:31.981Z,99258.47
2023-03-11T15:06:34.448Z,99241.25
2023-03-11T15:09:23.087Z,99260.69
2023-03-11T15:11:55.909Z,99261.84
2023-03-11T15:14:31.699Z,99209.03
2023-03-11T15:17:44.223Z,99228.28
2023-03-11T15:20:33.623Z,99266.56
2023-03-11T15:23:03.168Z,99270.34
2023-03-11T15:25:53.066Z,99225.84
2023-03-11T15:28:54.072Z,99234.72
2023-03-11T15:31:37.730Z,99133.06
2023-03-11T15:34:21.065Z,99242.84
2023-03-11T15:37:15.079Z,99255.94
2023-03-11T15:40:12.296Z,99255.31
2023-03-11T15:43:00.077Z,99276.50
2023-03-11T15:45:43.472Z,99285.22
2023-03-11T15:48:12.273Z,99274.97
2023-03-11T15:50:53.404Z,99287.97
2023-03-11T15:53:42.085Z,99260.13
2023-03-11T15:56:43.065Z,99276.09
2023-03-11T15:59:44.141Z,99212.81
2023-03-11T16:02:28.039Z,99264.41
2023-03-11T16:05:15.124Z,99269.72
2023-03-11T16:07:55.718Z,99308.22
2023-03-11T16:10:28.898Z,99294.41
2023-03-11T16:12:56.332Z,99318.22
2023-03-11T16:15:32.549Z,99322.63
2023-03-11T16:18:02.015Z,99291.38
2023-03-11T16:20:34.077Z,99322.63
2023-03-11T16:23:02.509Z,99307.44
2023-03-11T16:25:39.041Z,99326.69
2023-03-11T16:28:07.152Z,99310.19
2023-03-11T16:30:34.993Z,99329.50
2023-03-11T16:33:04.864Z,99322.69
2023-03-11T16:35:32.786Z,99320.13
2023-03-11T16:38:21.129Z,99310.72
2023-03-11T16:41:22.082Z,99315.50
2023-03-11T16:44:23.132Z,99321.78
2023-03-11T16:47:24.156Z,99295.81
2023-03-11T16:50:25.120Z,99338.53
2023-03-11T16:53:26.126Z,99334.53
2023-03-11T16:56:07.058Z,99336.44
2023-03-11T16:58:33.983Z,99375.13
2023-03-11T17:01:00.906Z,99297.50
2023-03-11T17:03:34.463Z,99245.38
2023-03-11T17:06:42.509Z,99338.81
2023-03-11T17:09:14.913Z,99278.94
2023-03-11T17:11:41.845Z,99369.66
2023-03-11T17:14:16.266Z,99346.34
2023-03-11T17:16:45.313Z,99383.06
2023-03-11T17:19:12.339Z,99366.72
2023-03-11T17:21:59.174Z,99398.13
2023-03-11T17:25:00.150Z,99400.97
2023-03-11T17:27:42.933Z,99385.28
2023-03-11T17:30:11.949Z,99402.84
2023-03-11T17:32:39.030Z,99352.25
2023-03-11T17:35:06.501Z,99273.78
2023-03-11T17:37:53.142Z,99392.78
2023-03-11T17:40:54.169Z,99403.41
2023-03-11T17:43:56.164Z,99434.00
2023-03-11T17:46:57.156Z,99440.34
2023-03-11T17:49:37.938Z,99422.94
2023-03-11T17:52:25.176Z,99347.88
2023-03-11T17:55:06.580Z,99403.84
2023-03-11T17:57:53.189Z,99463.41
2023-03-11T18:00:54.202Z,99452.09
2023-03-11T18:03:55.268Z,99458.25
2023-03-11T18:06:39.459Z,99398.78
2023-03-11T18:09:06.517Z,99460.91
2023-03-11T18:11:33.558Z,99439.94
2023-03-11T18:14:00.577Z,99440.88
2023-03-11T18:16:29.222Z,99480.28
2023-03-11T18:18:59.323Z,99447.09
2023-03-11T18:21:46.181Z,99471.56
2023-03-11T18:24:47.166Z,99480.41
2023-03-11T18:27:44.977Z,99499.69
2023-03-11T18:30:12.599Z,99424.44
2023-03-11T18:32:39.580Z,99504.97
2023-03-11T18:35:07.013Z,99528.66
2023-03-11T18:37:54.192Z,99529.50
2023-03-11T18:40:55.182Z,99490.13
2023-03-11T18:43:56.213Z,99464.72
2023-03-11T18:46:36.832Z,99466.47
2023-03-11T18:49:04.582Z,99497.13
2023-03-11T18:51:52.192Z,99468.28
2023-03-11T18:54:53.200Z,99500.66
2023-03-11T18:57:54.292Z,99540.09
2023-03-11T19:00:55.230Z,99491.88
2023-03-11T19:03:58.205Z,99559.31
2023-03-11T19:06:59.214Z,99540.94
2023-03-11T19:09:39.957Z,99568.09
2023-03-11T19:12:07.244Z,99499.81
2023-03-11T19:14:34.142Z,99448.13
2023-03-11T19:17:01.141Z,99522.59
2023-03-11T19:19:28.192Z,99573.38
2023-03-11T19:21:55.103Z,99595.28
2023-03-11T19:24:22.176Z,99543.59
2023-03-11T19:26:49.110Z,99459.47
2023-03-11T19:29:16.140Z,99543.59
2023-03-11T19:31:43.976Z,99603.19
2023-03-11T19:34:11.379Z,99601.41
2023-03-11T19:36:58.198Z,99589.16
2023-03-11T19:39:39.004Z,99588.28
2023-03-11T19:42:26.238Z,99589.16
2023-03-11T19:45:27.243Z,99586.53
2023-03-11T19:48:07.885Z,99536.63
2023-03-11T19:50:55.214Z,99614.59
2023-03-11T19:53:56.262Z,99595.34
2023-03-11T19:56:57.301Z,99617.22
2023-03-11T19:59:31.740Z,99610.25
2023-03-11T20:02:19.286Z,99613.75
2023-03-11T20:05:20.295Z,99625.13
2023-03-11T20:08:00.843Z,99604.09
2023-03-11T20:10:27.837Z,99610.19
2023-03-11T20:13:02.030Z,99542.72
2023-03-11T20:15:30.491Z,99611.97
2023-03-11T20:17:57.942Z,99643.50
2023-03-11T20:20:24.852Z,99517.28
2023-03-11T20:22:51.828Z,99619.00
2023-03-11T20:25:18.973Z,99543.56
2023-03-11T20:28:07.313Z,99585.69
2023-03-11T20:30:47.946Z,99661.09
2023-03-11T20:33:15.023Z,99650.56
2023-03-11T20:35:42.134Z,99676.88
2023-03-11T20:38:29.389Z,99662.81
2023-03-11T20:41:10.284Z,99706.66
2023-03-11T20:43:58.374Z,99707.53
2023-03-11T20:46:39.183Z,99736.34
2023-03-11T20:49:06.365Z,99680.06
2023-03-11T20:51:54.409Z,99739.75
2023-03-11T20:54:55.386Z,99746.81
2023-03-11T20:57:37.126Z,99768.72
2023-03-11T21:00:12.013Z,99792.41
2023-03-11T21:02:40.919Z,99805.47
2023-03-11T21:05:28.391Z,99728.13
2023-03-11T21:08:08.937Z,99741.19
2023-03-11T21:10:36.139Z,99792.00
2023-03-11T21:13:03.651Z,99761.16
2023-03-11T21:15:30.998Z,99781.31
2023-03-11T21:17:57.984Z,99797.94
2023-03-11T21:20:25.261Z,99811.97
2023-03-11T21:22:52.245Z,99811.97
2023-03-11T21:25:19.371Z,99817.22
2023-03-11T21:27:46.400Z,99684.41
2023-03-11T21:30:13.888Z,99691.38
2023-03-11T21:32:41.125Z,99799.41
2023-03-11T21:35:29.330Z,99823.91
2023-03-11T21:38:30.430Z,99829.16
2023-03-11T21:41:34.328Z,99858.94
2023-03-11T21:44:35.429Z,99758.59
2023-03-11T21:47:16.151Z,99798.13
2023-03-11T21:49:43.175Z,99839.19
2023-03-11T21:52:10.148Z,99876.88
2023-03-11T21:54:37.208Z,99856.66
2023-03-11T21:57:04.460Z,99861.78
2023-03-11T21:59:31.682Z,99875.84
2023-03-11T22:02:03.079Z,99854.63
2023-03-11T22:04:50.524Z,99869.34
2023-03-11T22:07:51.503Z,99872.00
2023-03-11T22:10:32.447Z,99881.56
2023-03-11T22:12:59.463Z,99923.75
2023-03-11T22:15:26.643Z,99892.06
2023-03-11T22:17:53.813Z,99876.00
2023-03-11T22:20:21.387Z,99898.72
2023-03-11T22:22:48.377Z,99926.81
2023-03-11T22:25:15.456Z,99911.03
2023-03-11T22:28:05.345Z,99910.88
2023-03-11T22:30:45.884Z,99805.09
2023-03-11T22:33:14.819Z,99953.81
2023-03-11T22:35:48.492Z,99989.78
2023-03-11T22:38:36.323Z,99952.47
2023-03-11T22:41:19.386Z,99983.81
2023-03-11T22:44:20.330Z,99958.91
2023-03-11T22:47:01.513Z,99975.22
2023-03-11T22:49:28.472Z,99888.03
2023-03-11T22:51:55.477Z,99996.47
2023-03-11T22:54:22.471Z,99937.81
2023-03-11T22:56:49.397Z,99981.22
2023-03-11T22:59:16.482Z,100037.63
2023-03-11T23:01:43.407Z,100027.66
2023-03-11T23:04:30.337Z,100005.38
2023-03-11T23:07:10.918Z,100035.63
2023-03-11T23:09:38.309Z,100053.81
2023-03-11T23:12:05.615Z,99974.63
2023-03-11T23:14:44.123Z,100003.72
2023-03-11T23:17:12.253Z,99911.72
2023-03-11T23:19:39.486Z,99938.03
2023-03-11T23:22:07.069Z,100070.19
2023-03-11T23:24:34.276Z,100077.25
2023-03-11T23:27:04.794Z,100071.66
2023-03-11T23:29:45.373Z,99996.47
2023-03-11T23:32:46.472Z,100037.88
2023-03-11T23:35:47.395Z,100087.25
2023-03-11T23:38:32.886Z,100060.53
2023-03-11T23:41:00.084Z,99981.94
2023-03-11T23:43:47.348Z,100098.34
2023-03-11T23:46:48.383Z,100095.38
2023-03-11T23:49:29.043Z,100114.66
2023-03-11T23:51:56.094Z,100056.50
2023-03-11T23:54:22.996Z,100086.81
2023-03-11T23:56:49.928Z,100083.09
2023-03-11T23:59:16.872Z,100130.75
